createdAt,value
2023-04-16T00:00:03.341Z,7.26
2023-04-16T00:03:07.367Z,7.21
2023-04-16T00:06:13.534Z,7.18
2023-04-16T00:09:17.039Z,7.16
2023-04-16T00:12:20.720Z,7.19
2023-04-16T00:15:24.648Z,7.17
2023-04-16T00:18:28.281Z,7.15
2023-04-16T00:21:33.222Z,7.13
2023-04-16T00:24:36.888Z,7.13
2023-04-16T00:27:40.454Z,7.09
2023-04-16T00:30:44.160Z,7.03
2023-04-16T00:33:47.697Z,6.99
2023-04-16T00:36:52.690Z,7.00
2023-04-16T00:39:56.339Z,7.02
2023-04-16T00:42:59.982Z,6.99
2023-04-16T00:46:07.006Z,6.97
2023-04-16T00:49:11.660Z,6.96
2023-04-16T00:52:16.934Z,6.97
2023-04-16T00:55:22.107Z,6.97
2023-04-16T00:58:26.896Z,6.91
2023-04-16T01:01:30.575Z,6.92
2023-04-16T01:04:36.240Z,6.92
2023-04-16T01:07:41.452Z,6.89
2023-04-16T01:10:45.069Z,6.86
2023-04-16T01:13:48.522Z,6.88
2023-04-16T01:16:52.032Z,6.89
2023-04-16T01:19:55.599Z,6.89
2023-04-16T01:23:00.519Z,6.89
2023-04-16T01:26:04.060Z,6.87
2023-04-16T01:29:07.756Z,6.90
2023-04-16T01:32:11.513Z,6.90
2023-04-16T01:35:14.984Z,6.87
2023-04-16T01:38:20.021Z,6.86
2023-04-16T01:41:23.659Z,6.84
2023-04-16T01:44:28.088Z,6.89
2023-04-16T01:47:31.749Z,6.82
2023-04-16T01:50:36.224Z,6.86
2023-04-16T01:53:41.230Z,6.83
2023-04-16T01:56:44.741Z,6.86
2023-04-16T01:59:48.256Z,6.86
2023-04-16T02:02:51.897Z,6.90
2023-04-16T02:05:55.689Z,6.89
2023-04-16T02:09:00.643Z,6.93
2023-04-16T02:12:04.392Z,6.95
2023-04-16T02:15:09.740Z,6.93
2023-04-16T02:18:13.373Z,6.93
2023-04-16T02:21:17.255Z,6.95
2023-04-16T02:24:22.865Z,6.94
2023-04-16T02:27:26.479Z,6.94
2023-04-16T02:30:29.967Z,6.92
2023-04-16T02:33:33.521Z,6.90
2023-04-16T02:36:37.064Z,6.94
2023-04-16T02:39:43.056Z,6.92
2023-04-16T02:42:47.950Z,6.93
2023-04-16T02:45:51.649Z,6.92
2023-04-16T02:48:55.178Z,6.95
2023-04-16T02:51:58.743Z,6.94
2023-04-16T02:55:03.902Z,6.92
2023-04-16T02:58:07.552Z,6.90
2023-04-16T03:01:13.959Z,6.89
2023-04-16T03:04:18.733Z,6.88
2023-04-16T03:07:22.416Z,6.93
2023-04-16T03:10:27.506Z,6.88
2023-04-16T03:13:31.341Z,6.85
2023-04-16T03:16:34.949Z,6.86
2023-04-16T03:19:38.513Z,6.82
2023-04-16T03:22:42.141Z,6.82
2023-04-16T03:25:48.146Z,6.81
2023-04-16T03:28:51.673Z,6.78
2023-04-16T03:31:55.329Z,6.75
2023-04-16T03:34:59.263Z,6.73
2023-04-16T03:38:02.778Z,6.76
2023-04-16T03:41:07.819Z,6.72
2023-04-16T03:44:11.694Z,6.77
2023-04-16T03:47:15.624Z,6.77
2023-04-16T03:50:20.812Z,6.77
2023-04-16T03:53:24.532Z,6.75
2023-04-16T03:56:29.446Z,6.77
2023-04-16T03:59:34.923Z,6.78
2023-04-16T04:02:38.648Z,6.78
2023-04-16T04:05:43.994Z,6.78
2023-04-16T04:08:47.619Z,6.75
2023-04-16T04:11:52.760Z,6.75
2023-04-16T04:14:56.230Z,6.75
2023-04-16T04:18:00.427Z,6.77
2023-04-16T04:21:07.893Z,6.79
2023-04-16T04:24:11.855Z,6.78
2023-04-16T04:27:16.799Z,6.79
2023-04-16T04:30:20.728Z,6.79
2023-04-16T04:33:24.341Z,6.77
2023-04-16T04:36:28.320Z,6.81
2023-04-16T04:39:31.839Z,6.83
2023-04-16T04:42:36.979Z,6.82
2023-04-16T04:45:40.572Z,6.86
2023-04-16T04:48:44.281Z,6.87
2023-04-16T04:51:50.186Z,6.88
2023-04-16T04:55:01.507Z,6.89
2023-04-16T04:58:09.821Z,6.88
2023-04-16T05:01:16.580Z,6.89
2023-04-16T05:04:21.208Z,6.92
2023-04-16T05:07:24.862Z,6.92
2023-04-16T05:10:28.756Z,6.87
2023-04-16T05:13:33.744Z,6.85
2023-04-16T05:16:38.818Z,6.88
2023-04-16T05:19:42.468Z,6.88
2023-04-16T05:22:46.039Z,6.87
2023-04-16T05:25:49.634Z,6.84
2023-04-16T05:28:54.712Z,6.88
2023-04-16T05:31:58.561Z,6.89
2023-04-16T05:35:02.543Z,6.92
2023-04-16T05:38:06.053Z,6.91
2023-04-16T05:41:09.546Z,6.92
2023-04-16T05:44:15.337Z,6.91
2023-04-16T05:47:18.846Z,6.94
2023-04-16T05:50:23.445Z,6.99
2023-04-16T05:53:26.973Z,7.02
2023-04-16T05:56:30.466Z,7.06
2023-04-16T05:59:35.471Z,7.04
2023-04-16T06:02:39.275Z,7.08
2023-04-16T06:05:42.923Z,7.08
2023-04-16T06:08:46.457Z,7.10
2023-04-16T06:11:50.620Z,7.14
2023-04-16T06:14:56.325Z,7.16
2023-04-16T06:18:01.047Z,7.26
2023-04-16T06:21:05.989Z,7.23
2023-04-16T06:24:09.533Z,7.29
2023-04-16T06:27:13.199Z,7.38
2023-04-16T06:30:18.317Z,7.38
2023-04-16T06:33:21.994Z,7.37
2023-04-16T06:36:27.593Z,7.41
2023-04-16T06:39:31.682Z,7.39
2023-04-16T06:42:35.549Z,7.44
2023-04-16T06:45:40.586Z,7.46
2023-04-16T06:48:44.154Z,7.43
2023-04-16T06:51:47.986Z,7.45
2023-04-16T06:54:51.708Z,7.52
2023-04-16T06:57:55.282Z,7.47
2023-04-16T07:01:00.771Z,7.52
2023-04-16T07:04:05.365Z,7.49
2023-04-16T07:07:09.740Z,7.63
2023-04-16T07:10:13.269Z,7.60
2023-04-16T07:13:18.802Z,7.66
2023-04-16T07:16:23.753Z,7.63
2023-04-16T07:19:30.589Z,7.68
2023-04-16T07:22:34.242Z,7.80
2023-04-16T07:25:37.740Z,7.95
2023-04-16T07:28:41.340Z,8.02
2023-04-16T07:31:46.709Z,7.98
2023-04-16T07:34:50.274Z,8.14
2023-04-16T07:37:53.969Z,8.15
2023-04-16T07:40:57.665Z,8.05
2023-04-16T07:44:01.919Z,8.16
2023-04-16T07:47:06.846Z,8.30
2023-04-16T07:50:11.875Z,8.30
2023-04-16T07:53:15.580Z,8.27
2023-04-16T07:56:19.171Z,8.25
2023-04-16T07:59:24.335Z,8.38
2023-04-16T08:02:29.694Z,8.23
2023-04-16T08:05:33.414Z,8.36
2023-04-16T08:08:37.194Z,8.47
2023-04-16T08:11:40.765Z,8.45
2023-04-16T08:14:45.100Z,8.52
2023-04-16T08:17:49.970Z,8.45
2023-04-16T08:20:53.632Z,8.68
2023-04-16T08:23:57.179Z,8.77
2023-04-16T08:27:15.128Z,8.75
2023-04-16T08:30:22.023Z,8.92
2023-04-16T08:33:27.186Z,8.90
2023-04-16T08:36:31.339Z,9.15
2023-04-16T08:39:35.433Z,9.34
2023-04-16T08:42:46.804Z,9.17
2023-04-16T08:45:56.376Z,9.31
2023-04-16T08:49:06.980Z,9.37
2023-04-16T08:52:17.718Z,9.63
2023-04-16T08:55:27.896Z,9.32
2023-04-16T08:58:35.640Z,9.76
2023-04-16T09:01:41.978Z,9.93
2023-04-16T09:04:49.870Z,10.04
2023-04-16T09:07:54.709Z,10.25
2023-04-16T09:10:58.560Z,10.08
2023-04-16T09:14:03.195Z,10.52
2023-04-16T09:17:08.409Z,10.32
2023-04-16T09:20:13.971Z,10.30
2023-04-16T09:23:17.630Z,10.33
2023-04-16T09:26:22.065Z,10.26
2023-04-16T09:29:37.054Z,10.41
2023-04-16T09:32:40.595Z,10.77
2023-04-16T09:35:50.086Z,10.51
2023-04-16T09:38:56.948Z,10.57
2023-04-16T09:42:01.177Z,10.40
2023-04-16T09:45:06.223Z,10.29
2023-04-16T09:48:09.909Z,10.75
2023-04-16T09:51:14.791Z,10.60
2023-04-16T09:54:18.296Z,10.72
2023-04-16T09:57:22.993Z,10.61
2023-04-16T10:00:26.529Z,10.37
2023-04-16T10:03:34.617Z,10.41
2023-04-16T10:06:40.035Z,10.49
2023-04-16T10:09:44.042Z,10.62
2023-04-16T10:12:47.716Z,10.62
2023-04-16T10:15:52.580Z,10.61
2023-04-16T10:18:57.511Z,10.46
2023-04-16T10:22:03.258Z,10.47
2023-04-16T10:25:08.936Z,10.86
2023-04-16T10:28:15.006Z,10.91
2023-04-16T10:31:19.797Z,10.71
2023-04-16T10:34:25.590Z,10.57
2023-04-16T10:37:34.659Z,10.53
2023-04-16T10:40:38.151Z,10.80
2023-04-16T10:43:44.317Z,10.86
2023-04-16T10:46:50.802Z,10.57
2023-04-16T10:49:54.618Z,10.94
2023-04-16T10:53:24.596Z,11.03
2023-04-16T10:56:30.524Z,10.84
2023-04-16T10:59:36.311Z,11.19
2023-04-16T11:02:42.726Z,11.18
2023-04-16T11:05:47.938Z,11.22
2023-04-16T11:08:55.417Z,10.89
2023-04-16T11:11:59.603Z,10.97
2023-04-16T11:15:05.770Z,11.01
2023-04-16T11:18:10.921Z,10.85
2023-04-16T11:21:14.605Z,11.37
2023-04-16T11:24:19.458Z,11.64
2023-04-16T11:27:23.729Z,11.20
2023-04-16T11:30:32.007Z,11.11
2023-04-16T11:33:35.498Z,11.87
2023-04-16T11:36:45.214Z,12.03
2023-04-16T11:39:54.699Z,11.95
2023-04-16T11:43:03.982Z,11.97
2023-04-16T11:46:20.612Z,11.95
2023-04-16T11:49:31.189Z,11.80
2023-04-16T11:52:36.454Z,11.87
2023-04-16T11:55:46.638Z,11.62
2023-04-16T11:59:09.364Z,11.67
2023-04-16T12:02:14.429Z,11.54
2023-04-16T12:05:38.886Z,11.35
2023-04-16T12:08:48.399Z,11.27
2023-04-16T12:11:54.031Z,11.26
2023-04-16T12:14:59.746Z,11.44
2023-04-16T12:18:10.484Z,11.48
2023-04-16T12:21:14.195Z,11.41
2023-04-16T12:24:24.102Z,11.37
2023-04-16T12:27:45.566Z,11.33
2023-04-16T12:30:53.217Z,11.48
2023-04-16T12:34:04.071Z,11.41
2023-04-16T12:37:10.640Z,11.37
2023-04-16T12:40:14.725Z,11.46
2023-04-16T12:43:19.997Z,11.48
2023-04-16T12:46:23.755Z,11.56
2023-04-16T12:49:27.318Z,11.55
2023-04-16T12:52:31.110Z,11.57
2023-04-16T12:55:34.836Z,11.77
2023-04-16T12:58:39.882Z,11.80
2023-04-16T13:01:43.419Z,12.04
2023-04-16T13:04:47.262Z,12.10
2023-04-16T13:07:50.992Z,11.73
2023-04-16T13:10:57.053Z,11.70
2023-04-16T13:14:01.991Z,11.89
2023-04-16T13:17:06.314Z,12.11
2023-04-16T13:20:11.226Z,11.84
2023-04-16T13:23:15.193Z,11.99
2023-04-16T13:26:18.901Z,11.72
2023-04-16T13:29:24.321Z,11.65
2023-04-16T13:32:28.025Z,11.73
2023-04-16T13:35:32.241Z,11.62
2023-04-16T13:38:36.124Z,11.33
2023-04-16T13:41:39.857Z,11.54
2023-04-16T13:44:48.765Z,11.59
2023-04-16T13:47:52.489Z,11.31
2023-04-16T13:50:56.070Z,11.06
2023-04-16T13:54:00.624Z,11.15
2023-04-16T13:57:04.152Z,11.33
2023-04-16T14:00:13.083Z,11.44
2023-04-16T14:03:17.119Z,11.25
2023-04-16T14:06:20.724Z,11.50
2023-04-16T14:09:24.450Z,11.40
2023-04-16T14:12:30.282Z,11.63
2023-04-16T14:15:35.426Z,11.60
2023-04-16T14:18:42.397Z,11.89
2023-04-16T14:21:46.206Z,11.68
2023-04-16T14:24:49.819Z,11.66
2023-04-16T14:27:53.907Z,11.68
2023-04-16T14:30:58.806Z,11.72
2023-04-16T14:34:02.720Z,11.77
2023-04-16T14:37:07.104Z,11.72
2023-04-16T14:40:12.351Z,11.61
2023-04-16T14:43:16.147Z,11.68
2023-04-16T14:46:21.092Z,11.79
2023-04-16T14:49:24.939Z,11.65
2023-04-16T14:52:29.644Z,11.68
2023-04-16T14:55:33.431Z,11.75
2023-04-16T14:58:39.076Z,11.94
2023-04-16T15:01:44.838Z,11.68
2023-04-16T15:04:48.387Z,11.32
2023-04-16T15:07:51.853Z,11.62
2023-04-16T15:10:55.669Z,11.48
2023-04-16T15:13:59.196Z,11.53
2023-04-16T15:17:04.380Z,11.84
2023-04-16T15:20:10.551Z,11.62
2023-04-16T15:23:13.996Z,11.75
2023-04-16T15:26:17.578Z,11.87
2023-04-16T15:29:21.239Z,11.74
2023-04-16T15:32:26.170Z,11.87
2023-04-16T15:35:29.959Z,11.48
2023-04-16T15:38:33.460Z,11.31
2023-04-16T15:41:50.166Z,11.40
2023-04-16T15:45:00.888Z,11.45
2023-04-16T15:48:06.539Z,11.47
2023-04-16T15:51:10.391Z,11.52
2023-04-16T15:54:13.859Z,11.49
2023-04-16T15:57:17.408Z,11.46
2023-04-16T16:00:21.755Z,11.47
2023-04-16T16:03:28.422Z,11.22
2023-04-16T16:06:32.688Z,11.56
2023-04-16T16:09:36.759Z,11.66
2023-04-16T16:12:40.656Z,11.45
2023-04-16T16:15:44.281Z,11.53
2023-04-16T16:18:49.292Z,11.52
2023-04-16T16:21:53.014Z,11.54
2023-04-16T16:24:58.399Z,11.44
2023-04-16T16:28:05.998Z,11.40
2023-04-16T16:31:09.963Z,11.47
2023-04-16T16:34:20.927Z,11.26
2023-04-16T16:37:25.033Z,11.30
2023-04-16T16:40:29.703Z,11.29
2023-04-16T16:43:33.388Z,11.19
2023-04-16T16:46:37.389Z,11.05
2023-04-16T16:49:42.308Z,10.96
2023-04-16T16:52:46.123Z,10.92
2023-04-16T16:55:49.624Z,10.89
2023-04-16T16:58:55.195Z,10.90
2023-04-16T17:01:59.091Z,10.92
2023-04-16T17:05:04.500Z,10.82
2023-04-16T17:08:08.103Z,10.85
2023-04-16T17:11:11.870Z,10.67
2023-04-16T17:14:21.381Z,10.72
2023-04-16T17:17:55.283Z,10.72
2023-04-16T17:21:00.353Z,10.66
2023-04-16T17:24:03.907Z,10.64
2023-04-16T17:27:07.491Z,10.63
2023-04-16T17:30:11.894Z,10.66
2023-04-16T17:33:17.168Z,10.63
2023-04-16T17:36:23.121Z,10.54
2023-04-16T17:39:26.720Z,10.51
2023-04-16T17:42:30.398Z,10.47
2023-04-16T17:45:34.913Z,10.41
2023-04-16T17:48:38.579Z,10.35
2023-04-16T17:51:44.639Z,10.28
2023-04-16T17:54:48.504Z,10.23
2023-04-16T17:57:52.021Z,10.19
2023-04-16T18:00:55.570Z,10.17
2023-04-16T18:03:59.238Z,10.11
2023-04-16T18:07:04.283Z,10.08
2023-04-16T18:10:10.181Z,10.09
2023-04-16T18:13:13.728Z,9.99
2023-04-16T18:16:18.253Z,9.95
2023-04-16T18:19:22.269Z,9.98
2023-04-16T18:22:28.521Z,9.91
2023-04-16T18:25:35.032Z,9.90
2023-04-16T18:28:38.978Z,9.88
2023-04-16T18:31:42.951Z,9.85
2023-04-16T18:34:46.665Z,9.79
2023-04-16T18:37:51.538Z,9.75
2023-04-16T18:40:55.019Z,9.68
2023-04-16T18:43:58.679Z,9.66
2023-04-16T18:47:02.436Z,9.62
2023-04-16T18:50:07.836Z,9.57
2023-04-16T18:53:12.824Z,9.55
2023-04-16T18:56:16.393Z,9.49
2023-04-16T18:59:19.880Z,9.44
2023-04-16T19:02:23.417Z,9.47
2023-04-16T19:05:26.959Z,9.37
2023-04-16T19:08:31.862Z,9.32
2023-04-16T19:11:35.333Z,9.26
2023-04-16T19:14:40.096Z,9.25
2023-04-16T19:17:43.638Z,9.16
2023-04-16T19:20:47.151Z,9.12
2023-04-16T19:23:52.049Z,9.07
2023-04-16T19:26:55.996Z,9.06
2023-04-16T19:29:59.541Z,9.03
2023-04-16T19:33:03.118Z,9.03
2023-04-16T19:36:07.581Z,9.03
2023-04-16T19:39:12.738Z,8.98
2023-04-16T19:42:16.735Z,8.96
2023-04-16T19:45:25.645Z,8.95
2023-04-16T19:48:30.429Z,8.91
2023-04-16T19:51:34.754Z,8.91
2023-04-16T19:54:40.333Z,8.89
2023-04-16T19:57:44.275Z,8.88
2023-04-16T20:00:48.144Z,8.90
2023-04-16T20:03:51.654Z,8.85
2023-04-16T20:06:55.230Z,8.84
2023-04-16T20:10:00.437Z,8.83
2023-04-16T20:13:04.967Z,8.78
2023-04-16T20:16:09.427Z,8.72
2023-04-16T20:19:19.921Z,8.72
2023-04-16T20:22:23.493Z,8.72
2023-04-16T20:25:29.323Z,8.71
2023-04-16T20:28:32.754Z,8.69
2023-04-16T20:31:36.219Z,8.67
2023-04-16T20:34:40.503Z,8.68
2023-04-16T20:37:43.978Z,8.65
2023-04-16T20:40:48.900Z,8.65
2023-04-16T20:43:52.885Z,8.64
2023-04-16T20:46:57.178Z,8.64
2023-04-16T20:50:01.809Z,8.63
2023-04-16T20:53:05.315Z,8.61
2023-04-16T20:56:12.163Z,8.61
2023-04-16T20:59:15.730Z,8.61
2023-04-16T21:02:20.170Z,8.58
2023-04-16T21:05:26.547Z,8.60
2023-04-16T21:08:30.158Z,8.58
2023-04-16T21:11:35.904Z,8.54
2023-04-16T21:14:39.390Z,8.53
2023-04-16T21:17:43.057Z,8.48
2023-04-16T21:20:46.739Z,8.50
2023-04-16T21:23:50.433Z,8.46
2023-04-16T21:26:55.298Z,8.38
2023-04-16T21:29:58.791Z,8.39
2023-04-16T21:33:02.638Z,8.37
2023-04-16T21:36:06.580Z,8.37
2023-04-16T21:39:11.180Z,8.34
2023-04-16T21:42:16.138Z,8.33
2023-04-16T21:45:21.719Z,8.31
2023-04-16T21:48:27.054Z,8.31
2023-04-16T21:51:30.704Z,8.30
2023-04-16T21:54:34.194Z,8.28
2023-04-16T21:57:39.411Z,8.23
2023-04-16T22:00:43.071Z,8.22
2023-04-16T22:03:51.108Z,8.21
2023-04-16T22:06:56.307Z,8.16
2023-04-16T22:10:00.005Z,8.15
2023-04-16T22:13:05.086Z,8.11
2023-04-16T22:16:11.512Z,8.05
2023-04-16T22:19:15.414Z,8.01
2023-04-16T22:22:20.635Z,8.01
2023-04-16T22:25:25.648Z,7.98
2023-04-16T22:28:30.524Z,7.93
2023-04-16T22:31:34.393Z,7.90
2023-04-16T22:34:37.939Z,7.89
2023-04-16T22:37:41.435Z,7.88
2023-04-16T22:40:44.923Z,7.85
2023-04-16T22:43:52.297Z,7.83
2023-04-16T22:46:56.064Z,7.80
2023-04-16T22:50:00.626Z,7.79
2023-04-16T22:53:04.102Z,7.76
2023-04-16T22:56:08.468Z,7.77
2023-04-16T22:59:13.535Z,7.75
2023-04-16T23:02:17.407Z,7.75
2023-04-16T23:05:21.235Z,7.78
2023-04-16T23:08:24.712Z,7.76
2023-04-16T23:11:28.209Z,7.75
2023-04-16T23:14:33.045Z,7.76
2023-04-16T23:17:36.572Z,7.76
2023-04-16T23:20:40.226Z,7.77
2023-04-16T23:23:43.795Z,7.67
2023-04-16T23:26:47.994Z,7.64
2023-04-16T23:29:52.821Z,7.59
2023-04-16T23:32:56.430Z,7.56
2023-04-16T23:36:00.024Z,7.59
2023-04-16T23:39:03.468Z,7.53
2023-04-16T23:42:07.138Z,7.59
2023-04-16T23:45:12.865Z,7.58
2023-04-16T23:48:16.509Z,7.54
2023-04-16T23:51:19.948Z,7.55
2023-04-16T23:54:23.872Z,7.60
2023-04-16T23:57:27.312Z,7.55
